Williams Lake, Canada
Current Conditions -  °F | °C
As of 12:00 PM on Thursday 23 Oct 2014 (Local Time) from CYWL Reporting Station
Broken Clouds Broken Clouds  
Wind Chill: 43°   Ceiling: 13000
Heat Index: 43°   Visibility: 15mi
Dew Point: 37°   Wind: 3mph
Humidity: 81%   Direction: 110°ESE
Pressure: 29.63"   Gusts: NA
Location:  52.13°N, 122.14°W
Report Text: CYWL 231900Z 11003KT 100V180 15SM FEW025 FEW070 BKN130 06/03 A2963 RMK CU1AC1AC6 CU TR SLP054
Loading
Personal Weather Stations






























Interactive Weather Map
Tropical Storm Tracking
New forecast layout! Learn more

10-Day Weather Forecast

Advertisements
Track Severe Weather on mobile